Roberta, GA

10:13 AM EDT on May 27, 2015 (GMT -0400)
WA4RG | | Change Station
CLOSE
Current Station
Personal Weather Station
Location: Fort Valley, GA
Elevation: 538 ft
Nearby Weather Stations

Elev 538 ft 32.57 °N, 83.90 °W | Updated 2 seconds ago

Overcast
Overcast
70.3 °F
Feels Like 70.3 °F
N
0.0
Wind Variable Wind from North
Gusts 1.0 mph

Today
High -- | Low -- °F
--% Chance of Precip.
Yesterday
High -- | Low -- °F
Precip. -- in
6:30 AM 8:35 PM
Waxing Gibbous, 67% visible
Pressure 30.26 in
Visibility 0.5 miles
Clouds
Dew Point 70 °F
Humidity 98%
Rainfall 0.00 in
Snow Depth Not available.
UV Not available.
Pollen .60 out of 12
Air Quality Not available.
Flu Activity Sporadic
METAR K6A1 271355Z AUTO 10003KT 1/2SM FG 23/23 A3026 RMK AO2 T02260226

More Conditions Fewer Conditions

Pressure 30.26 in
Visibility 0.5 miles
Clouds
Dew Point 70 °F
Humidity 98%
Rainfall 0.00 in
Snow Depth Not available.
UV Not available.
Pollen .60 out of 12
Air Quality Not available.
Flu Activity Sporadic
METAR K6A1 271355Z AUTO 10003KT 1/2SM FG 23/23 A3026 RMK AO2 T02260226

More Conditions Fewer Conditions

10-Day Weather Forecast

Almanac

Astronomy

May. 27, 2015 Rise Set
Actual Time
Civil Twilight
Nautical Twilight
Astronomical Twilight
Moon
Length of Visible Light
Length of Day
Tomorrow will be .
, % of the Moon is Illuminated

Today's Extremes

State Highs State Lows

Community

WunderPhotos

Upload Photos

1,824,680 photos uploaded!

WunderBlogs® & News

Nearby

Air Quality

  Air Quality AQ Index Pollutant
Not available.

Snow Depth

Station Depth Elevation

Earthquake Activity

City Distance Mag. Time & Date
Minimum magnitude displayed is 2.5.

Coastal Water Temperatures

Place Temperature

Stations

Nearby Weather Stations

Station Location Temp. Windchill Dew Point Humidity Wind Precip. Elev Updated Type